createdAt,value
2022-12-01T00:00:59.080Z,15.35
2022-12-01T00:03:25.768Z,15.29
2022-12-01T00:06:02.965Z,15.32
2022-12-01T00:08:29.656Z,15.52
2022-12-01T00:10:56.427Z,16.47
2022-12-01T00:13:23.104Z,16.62
2022-12-01T00:15:49.751Z,16.42
2022-12-01T00:18:16.411Z,15.68
2022-12-01T00:20:43.040Z,15.82
2022-12-01T00:23:09.684Z,16.52
2022-12-01T00:25:36.383Z,16.35
2022-12-01T00:28:02.994Z,16.28
2022-12-01T00:30:29.584Z,16.82
2022-12-01T00:32:56.218Z,15.98
2022-12-01T00:35:22.901Z,15.73
2022-12-01T00:37:49.536Z,16.56
2022-12-01T00:40:16.157Z,17.01
2022-12-01T00:42:42.870Z,16.21
2022-12-01T00:45:10.132Z,15.06
2022-12-01T00:47:36.889Z,14.72
2022-12-01T00:50:03.605Z,15.70
2022-12-01T00:52:30.213Z,15.99
2022-12-01T00:54:56.862Z,14.96
2022-12-01T00:57:23.512Z,15.54
2022-12-01T00:59:50.412Z,15.28
2022-12-01T01:02:17.359Z,14.86
2022-12-01T01:04:44.047Z,15.84
2022-12-01T01:07:10.646Z,15.19
2022-12-01T01:09:37.283Z,14.56
2022-12-01T01:12:03.954Z,15.63
2022-12-01T01:14:30.571Z,15.78
2022-12-01T01:16:57.353Z,16.28
2022-12-01T01:19:24.011Z,16.37
2022-12-01T01:21:50.628Z,16.16
2022-12-01T01:24:17.416Z,16.40
2022-12-01T01:26:44.141Z,16.42
2022-12-01T01:29:10.805Z,16.05
2022-12-01T01:31:37.465Z,16.72
2022-12-01T01:34:04.065Z,16.57
2022-12-01T01:36:30.676Z,16.32
2022-12-01T01:38:57.373Z,17.26
2022-12-01T01:41:24.031Z,17.42
2022-12-01T01:43:57.532Z,17.36
2022-12-01T01:46:34.009Z,17.60
2022-12-01T01:49:11.183Z,17.19
2022-12-01T01:51:42.246Z,16.82
2022-12-01T01:54:18.659Z,17.75
2022-12-01T01:56:45.270Z,17.84
2022-12-01T01:59:12.638Z,17.75
2022-12-01T02:01:39.432Z,17.97
2022-12-01T02:04:06.143Z,17.96
2022-12-01T02:06:32.820Z,18.44
2022-12-01T02:08:59.531Z,18.19
2022-12-01T02:11:31.153Z,17.91
2022-12-01T02:14:14.378Z,17.96
2022-12-01T02:16:50.099Z,17.45
2022-12-01T02:19:45.012Z,17.59
2022-12-01T02:22:37.685Z,17.73
2022-12-01T02:25:13.055Z,17.23
2022-12-01T02:28:06.403Z,17.40
2022-12-01T02:30:43.528Z,17.11
2022-12-01T02:33:15.731Z,17.46
2022-12-01T02:35:59.736Z,16.93
2022-12-01T02:38:36.352Z,16.69
2022-12-01T02:41:27.365Z,16.58
2022-12-01T02:44:08.952Z,15.83
2022-12-01T02:46:41.430Z,16.15
2022-12-01T02:49:19.526Z,15.53
2022-12-01T02:51:46.171Z,15.00
2022-12-01T02:54:13.647Z,15.20
2022-12-01T02:56:40.245Z,15.30
2022-12-01T02:59:10.946Z,15.98
2022-12-01T03:01:46.758Z,15.96
2022-12-01T03:04:46.443Z,16.12
2022-12-01T03:07:36.270Z,16.51
2022-12-01T03:10:40.475Z,16.29
2022-12-01T03:13:13.830Z,15.84
2022-12-01T03:15:58.948Z,16.56
2022-12-01T03:18:43.672Z,16.84
2022-12-01T03:21:17.828Z,16.03
2022-12-01T03:23:47.989Z,16.12
2022-12-01T03:26:16.522Z,16.04
2022-12-01T03:28:46.114Z,15.55
2022-12-01T03:31:15.852Z,15.02
2022-12-01T03:34:05.237Z,15.01
2022-12-01T03:36:45.542Z,15.31
2022-12-01T03:39:13.328Z,15.31
2022-12-01T03:41:45.658Z,14.69
2022-12-01T03:44:20.267Z,14.38
2022-12-01T03:46:53.868Z,14.54
2022-12-01T03:49:20.575Z,14.80
2022-12-01T03:52:10.542Z,14.41
2022-12-01T03:55:09.416Z,14.24
2022-12-01T03:58:12.176Z,14.16
2022-12-01T04:00:38.804Z,14.38
2022-12-01T04:03:05.629Z,14.74
2022-12-01T04:05:33.434Z,14.90
2022-12-01T04:08:00.396Z,14.63
2022-12-01T04:10:27.147Z,14.84
2022-12-01T04:12:53.764Z,15.38
2022-12-01T04:15:20.406Z,14.31
2022-12-01T04:17:47.048Z,13.29
2022-12-01T04:20:14.285Z,14.35
2022-12-01T04:22:40.927Z,13.96
2022-12-01T04:25:07.912Z,14.16
2022-12-01T04:27:34.594Z,14.70
2022-12-01T04:30:01.194Z,13.93
2022-12-01T04:32:27.824Z,14.77
2022-12-01T04:34:54.629Z,15.60
2022-12-01T04:37:21.223Z,15.31
2022-12-01T04:39:48.209Z,14.87
2022-12-01T04:42:15.260Z,13.81
2022-12-01T04:44:41.894Z,14.54
2022-12-01T04:47:08.602Z,13.41
2022-12-01T04:49:35.349Z,13.55
2022-12-01T04:52:02.003Z,12.98
2022-12-01T04:54:28.645Z,12.86
2022-12-01T04:56:55.248Z,12.42
2022-12-01T04:59:21.879Z,13.05
2022-12-01T05:01:48.571Z,13.13
2022-12-01T05:04:15.257Z,12.90
2022-12-01T05:06:41.887Z,12.87
2022-12-01T05:09:12.187Z,12.76
2022-12-01T05:11:42.374Z,12.87
2022-12-01T05:14:09.007Z,13.18
2022-12-01T05:16:35.778Z,13.49
2022-12-01T05:19:04.387Z,12.91
2022-12-01T05:21:30.985Z,13.56
2022-12-01T05:23:57.572Z,13.63
2022-12-01T05:26:24.209Z,13.16
2022-12-01T05:28:53.367Z,13.92
2022-12-01T05:31:20.011Z,13.63
2022-12-01T05:33:46.965Z,13.72
2022-12-01T05:36:13.604Z,13.97
2022-12-01T05:38:40.301Z,14.71
2022-12-01T05:41:06.947Z,14.82
2022-12-01T05:43:33.591Z,14.33
2022-12-01T05:46:00.299Z,14.51
2022-12-01T05:48:26.933Z,14.43
2022-12-01T05:50:53.580Z,14.23
2022-12-01T05:53:20.200Z,14.02
2022-12-01T05:55:46.976Z,14.60
2022-12-01T05:58:13.574Z,14.24
2022-12-01T06:00:45.689Z,14.88
2022-12-01T06:03:13.376Z,14.20
2022-12-01T06:05:40.292Z,14.62
2022-12-01T06:08:07.129Z,14.60
2022-12-01T06:10:33.732Z,14.66
2022-12-01T06:13:00.385Z,13.80
2022-12-01T06:15:27.301Z,13.89
2022-12-01T06:17:53.929Z,14.08
2022-12-01T06:20:20.541Z,13.25
2022-12-01T06:22:48.194Z,13.33
2022-12-01T06:25:14.865Z,12.83
2022-12-01T06:27:41.539Z,12.28
2022-12-01T06:30:08.734Z,12.00
2022-12-01T06:32:35.932Z,12.80
2022-12-01T06:35:02.717Z,11.98
2022-12-01T06:37:29.336Z,11.96
2022-12-01T06:39:56.097Z,11.95
2022-12-01T06:42:22.723Z,12.50
2022-12-01T06:44:49.325Z,12.21
2022-12-01T06:47:15.949Z,12.09
2022-12-01T06:49:42.584Z,12.40
2022-12-01T06:52:09.653Z,12.26
2022-12-01T06:54:36.307Z,12.40
2022-12-01T06:57:02.905Z,12.83
2022-12-01T06:59:29.526Z,13.30
2022-12-01T07:01:56.336Z,14.15
2022-12-01T07:04:23.034Z,14.33
2022-12-01T07:06:49.659Z,14.04
2022-12-01T07:09:16.260Z,13.80
2022-12-01T07:11:42.921Z,13.68
2022-12-01T07:14:16.448Z,13.56
2022-12-01T07:16:43.161Z,14.47
2022-12-01T07:19:09.944Z,13.96
2022-12-01T07:21:36.616Z,13.81
2022-12-01T07:24:05.660Z,13.86
2022-12-01T07:26:32.265Z,13.51
2022-12-01T07:28:58.868Z,13.18
2022-12-01T07:31:25.571Z,14.00
2022-12-01T07:33:52.505Z,13.90
2022-12-01T07:36:19.092Z,12.86
2022-12-01T07:38:45.753Z,13.58
2022-12-01T07:41:16.338Z,13.40
2022-12-01T07:43:43.004Z,13.49
2022-12-01T07:46:21.736Z,14.27
2022-12-01T07:48:49.258Z,14.79
2022-12-01T07:51:15.961Z,13.79
2022-12-01T07:53:43.329Z,13.46
2022-12-01T07:56:10.000Z,13.93
2022-12-01T07:58:36.663Z,13.36
2022-12-01T08:01:13.488Z,13.28
2022-12-01T08:03:40.297Z,13.60
2022-12-01T08:06:07.099Z,13.69
2022-12-01T08:08:34.700Z,13.14
2022-12-01T08:11:02.795Z,13.01
2022-12-01T08:13:29.447Z,12.51
2022-12-01T08:15:56.139Z,12.80
2022-12-01T08:18:23.066Z,12.64
2022-12-01T08:20:50.324Z,12.27
2022-12-01T08:23:17.121Z,12.15
2022-12-01T08:25:44.968Z,12.50
2022-12-01T08:28:11.697Z,11.96
2022-12-01T08:30:38.273Z,12.56
2022-12-01T08:33:04.936Z,13.05
2022-12-01T08:35:31.600Z,12.23
2022-12-01T08:37:58.253Z,12.57
2022-12-01T08:40:25.089Z,12.63
2022-12-01T08:42:52.088Z,12.74
2022-12-01T08:45:18.784Z,12.25
2022-12-01T08:47:46.451Z,12.36
2022-12-01T08:50:13.052Z,11.76
2022-12-01T08:52:39.649Z,11.61
2022-12-01T08:55:07.005Z,11.63
2022-12-01T08:57:33.670Z,11.36
2022-12-01T09:00:00.435Z,11.07
2022-12-01T09:02:27.165Z,11.21
2022-12-01T09:04:53.900Z,11.55
2022-12-01T09:07:26.148Z,11.44
2022-12-01T09:09:53.419Z,11.49
2022-12-01T09:12:20.059Z,11.70
2022-12-01T09:14:46.728Z,11.52
2022-12-01T09:17:13.707Z,11.49
2022-12-01T09:19:40.300Z,11.78
2022-12-01T09:22:06.940Z,11.43
2022-12-01T09:24:33.578Z,10.97
2022-12-01T09:27:00.171Z,10.66
2022-12-01T09:29:26.767Z,10.09
2022-12-01T09:31:55.644Z,10.46
2022-12-01T09:34:22.234Z,9.89
2022-12-01T09:36:49.156Z,9.92
2022-12-01T09:39:17.621Z,10.39
2022-12-01T09:41:48.934Z,10.11
2022-12-01T09:44:16.396Z,10.69
2022-12-01T09:47:06.139Z,10.31
2022-12-01T09:49:47.393Z,10.99
2022-12-01T09:52:16.898Z,10.23
2022-12-01T09:54:43.495Z,10.49
2022-12-01T09:57:31.822Z,10.24
2022-12-01T09:59:59.066Z,10.56
2022-12-01T10:02:31.582Z,10.81
2022-12-01T10:04:59.305Z,11.23
2022-12-01T10:07:32.054Z,11.46
2022-12-01T10:10:05.246Z,11.58
2022-12-01T10:12:33.934Z,11.79
2022-12-01T10:15:26.394Z,12.08
2022-12-01T10:18:21.973Z,11.49
2022-12-01T10:21:00.600Z,11.32
2022-12-01T10:23:36.152Z,11.49
2022-12-01T10:26:04.869Z,11.31
2022-12-01T10:28:39.261Z,11.42
2022-12-01T10:31:28.408Z,11.95
2022-12-01T10:33:54.956Z,12.04
2022-12-01T10:36:22.038Z,12.28
2022-12-01T10:38:48.662Z,11.78
2022-12-01T10:41:15.246Z,12.21
2022-12-01T10:43:47.461Z,12.24
2022-12-01T10:46:44.757Z,12.12
2022-12-01T10:49:15.132Z,13.13
2022-12-01T10:51:55.907Z,13.11
2022-12-01T10:54:23.948Z,13.25
2022-12-01T10:56:54.753Z,13.06
2022-12-01T10:59:31.598Z,12.92
2022-12-01T11:01:58.643Z,12.99
2022-12-01T11:04:52.619Z,13.87
2022-12-01T11:07:29.596Z,13.65
2022-12-01T11:10:05.036Z,13.56
2022-12-01T11:12:31.724Z,13.51
2022-12-01T11:14:58.325Z,13.92
2022-12-01T11:17:41.218Z,13.71
2022-12-01T11:20:27.707Z,14.05
2022-12-01T11:23:19.573Z,13.97
2022-12-01T11:25:58.376Z,13.87
2022-12-01T11:28:25.008Z,14.19
2022-12-01T11:30:58.485Z,14.06
2022-12-01T11:33:25.450Z,14.38
2022-12-01T11:35:53.091Z,14.23
2022-12-01T11:38:30.949Z,13.91
2022-12-01T11:40:57.745Z,14.79
2022-12-01T11:43:29.546Z,13.49
2022-12-01T11:45:57.188Z,13.50
2022-12-01T11:48:31.346Z,14.97
2022-12-01T11:51:01.922Z,15.01
2022-12-01T11:53:33.222Z,14.82
2022-12-01T11:56:19.833Z,14.91
2022-12-01T11:58:47.764Z,14.74
2022-12-01T12:01:21.824Z,13.76
2022-12-01T12:04:00.876Z,15.04
2022-12-01T12:06:41.160Z,15.37
2022-12-01T12:09:10.705Z,14.75
2022-12-01T12:11:44.038Z,14.19
2022-12-01T12:14:58.283Z,15.14
2022-12-01T12:17:52.385Z,14.80
2022-12-01T12:20:56.662Z,15.21
2022-12-01T12:23:32.495Z,15.26
2022-12-01T12:26:20.672Z,16.27
2022-12-01T12:29:02.516Z,15.77
2022-12-01T12:31:56.159Z,15.25
2022-12-01T12:34:35.197Z,15.46
2022-12-01T12:37:10.620Z,15.40
2022-12-01T12:39:50.850Z,15.45
2022-12-01T12:42:33.006Z,15.51
2022-12-01T12:45:07.376Z,15.44
2022-12-01T12:47:51.382Z,16.69
2022-12-01T12:50:27.645Z,17.78
2022-12-01T12:52:57.336Z,14.67
2022-12-01T12:55:30.673Z,15.45
2022-12-01T12:58:11.239Z,14.90
2022-12-01T13:00:40.701Z,16.05
2022-12-01T13:03:21.029Z,16.49
2022-12-01T13:05:54.292Z,15.81
2022-12-01T13:08:29.445Z,15.27
2022-12-01T13:11:00.838Z,15.42
2022-12-01T13:14:07.490Z,15.34
2022-12-01T13:16:37.023Z,15.53
2022-12-01T13:19:11.781Z,15.14
2022-12-01T13:21:41.012Z,14.77
2022-12-01T13:24:08.074Z,14.91
2022-12-01T13:26:35.371Z,15.47
2022-12-01T13:29:03.227Z,15.01
2022-12-01T13:31:29.907Z,14.60
2022-12-01T13:34:04.153Z,14.63
2022-12-01T13:36:46.224Z,15.52
2022-12-01T13:39:24.465Z,15.08
2022-12-01T13:42:19.598Z,14.24
2022-12-01T13:44:57.358Z,14.74
2022-12-01T13:47:47.059Z,14.78
2022-12-01T13:50:35.376Z,14.57
2022-12-01T13:53:28.955Z,14.34
2022-12-01T13:55:58.499Z,14.47
2022-12-01T13:58:32.282Z,14.60
2022-12-01T14:01:21.261Z,15.49
2022-12-01T14:03:57.860Z,14.93
2022-12-01T14:06:31.388Z,15.71
2022-12-01T14:09:02.382Z,15.10
2022-12-01T14:11:29.478Z,15.76
2022-12-01T14:14:20.016Z,15.78
2022-12-01T14:16:55.208Z,15.73
2022-12-01T14:19:45.074Z,15.14
2022-12-01T14:22:38.180Z,16.36
2022-12-01T14:25:25.587Z,15.71
2022-12-01T14:28:02.683Z,15.85
2022-12-01T14:30:41.479Z,16.59
2022-12-01T14:33:56.143Z,16.03
2022-12-01T14:36:41.828Z,15.60
2022-12-01T14:39:08.352Z,16.21
2022-12-01T14:41:42.180Z,15.99
2022-12-01T14:44:32.284Z,16.83
2022-12-01T14:47:16.853Z,16.50
2022-12-01T14:50:03.269Z,17.13
2022-12-01T14:52:37.672Z,16.62
2022-12-01T14:55:08.117Z,16.74
2022-12-01T14:57:37.762Z,16.55
2022-12-01T15:00:08.750Z,15.71
2022-12-01T15:02:38.926Z,15.96
2022-12-01T15:05:11.315Z,16.70
2022-12-01T15:07:39.211Z,15.98
2022-12-01T15:10:06.660Z,16.18
2022-12-01T15:12:33.295Z,16.27
2022-12-01T15:14:59.924Z,15.91
2022-12-01T15:17:33.370Z,16.08
2022-12-01T15:20:00.636Z,16.48
2022-12-01T15:22:30.932Z,16.73
2022-12-01T15:25:08.451Z,16.54
2022-12-01T15:27:35.133Z,16.70
2022-12-01T15:30:01.764Z,16.60
2022-12-01T15:32:28.444Z,16.29
2022-12-01T15:34:55.310Z,16.27
2022-12-01T15:37:22.930Z,16.69
2022-12-01T15:39:51.512Z,16.32
2022-12-01T15:42:31.567Z,16.70
2022-12-01T15:45:04.017Z,16.95
2022-12-01T15:47:32.773Z,17.25
2022-12-01T15:49:59.373Z,17.56
2022-12-01T15:52:26.037Z,17.51
2022-12-01T15:54:52.898Z,17.89
2022-12-01T15:57:20.146Z,17.05
2022-12-01T15:59:51.012Z,18.18
2022-12-01T16:02:20.524Z,17.69
2022-12-01T16:04:47.748Z,18.70
2022-12-01T16:07:14.477Z,18.69
2022-12-01T16:09:42.623Z,17.76
2022-12-01T16:12:09.179Z,18.49
2022-12-01T16:14:36.486Z,18.83
2022-12-01T16:17:03.976Z,18.08
2022-12-01T16:19:31.366Z,18.11
2022-12-01T16:22:18.628Z,18.80
2022-12-01T16:24:50.187Z,18.49
2022-12-01T16:27:24.049Z,18.89
2022-12-01T16:29:56.359Z,18.24
2022-12-01T16:32:39.403Z,18.42
2022-12-01T16:35:07.240Z,18.20
2022-12-01T16:37:33.872Z,18.69
2022-12-01T16:40:00.581Z,18.38
2022-12-01T16:42:27.308Z,19.11
2022-12-01T16:44:54.170Z,19.07
2022-12-01T16:47:24.644Z,19.29
2022-12-01T16:49:51.809Z,19.12
2022-12-01T16:55:06.037Z,20.04
2022-12-01T16:57:32.728Z,20.15
2022-12-01T16:59:59.453Z,20.21
2022-12-01T17:02:26.129Z,20.33
2022-12-01T17:04:53.032Z,20.41
2022-12-01T17:07:19.891Z,20.64
2022-12-01T17:09:47.758Z,21.15
2022-12-01T17:12:14.373Z,20.11
2022-12-01T17:14:41.026Z,20.09
2022-12-01T17:17:07.699Z,20.93
2022-12-01T17:19:34.346Z,20.85
2022-12-01T17:22:00.988Z,20.68
2022-12-01T17:24:27.633Z,21.55
2022-12-01T17:26:54.282Z,20.83
2022-12-01T17:29:20.985Z,21.35
2022-12-01T17:31:47.707Z,20.86
2022-12-01T17:34:14.399Z,21.66
2022-12-01T17:36:41.106Z,20.94
2022-12-01T17:39:07.719Z,20.67
2022-12-01T17:41:34.398Z,20.59
2022-12-01T17:44:04.268Z,20.96
2022-12-01T17:46:31.319Z,20.36
2022-12-01T17:48:58.451Z,20.23
2022-12-01T17:51:25.122Z,20.18
2022-12-01T17:53:53.278Z,21.01
2022-12-01T17:56:19.869Z,21.41
2022-12-01T17:58:46.506Z,20.40
2022-12-01T18:01:14.529Z,19.91
2022-12-01T18:03:41.144Z,20.48
2022-12-01T18:06:07.882Z,22.11
2022-12-01T18:08:34.823Z,20.91
2022-12-01T18:11:02.070Z,20.04
2022-12-01T18:13:28.710Z,22.20
2022-12-01T18:15:55.417Z,26.53
2022-12-01T18:18:22.040Z,20.98
2022-12-01T18:20:48.664Z,19.86
2022-12-01T18:23:15.307Z,19.41
2022-12-01T18:25:41.972Z,19.35
2022-12-01T18:28:08.628Z,19.29
2022-12-01T18:30:35.298Z,18.68
2022-12-01T18:33:01.965Z,18.52
2022-12-01T18:35:31.709Z,18.78
2022-12-01T18:37:58.646Z,19.15
2022-12-01T18:40:25.313Z,19.02
2022-12-01T18:42:51.955Z,18.99
2022-12-01T18:45:21.314Z,19.46
2022-12-01T18:47:48.268Z,19.64
2022-12-01T18:50:15.053Z,18.64
2022-12-01T18:52:41.703Z,18.19
2022-12-01T18:55:08.630Z,18.57
2022-12-01T18:57:35.241Z,19.26
2022-12-01T19:00:02.604Z,18.25
2022-12-01T19:02:29.320Z,18.38
2022-12-01T19:04:55.990Z,18.76
2022-12-01T19:07:26.600Z,18.51
2022-12-01T19:09:56.374Z,18.82
2022-12-01T19:12:23.017Z,18.56
2022-12-01T19:14:49.969Z,18.72
2022-12-01T19:17:16.936Z,19.16
2022-12-01T19:19:43.600Z,18.81
2022-12-01T19:22:10.381Z,18.92
2022-12-01T19:24:37.101Z,18.67
2022-12-01T19:27:03.748Z,19.45
2022-12-01T19:29:30.502Z,20.18
2022-12-01T19:31:57.338Z,18.68
2022-12-01T19:34:24.010Z,18.84
2022-12-01T19:36:50.614Z,19.22
2022-12-01T19:39:17.304Z,19.36
2022-12-01T19:41:43.905Z,20.49
2022-12-01T19:44:10.627Z,19.94
2022-12-01T19:46:37.334Z,19.46
2022-12-01T19:49:04.292Z,19.87
2022-12-01T19:51:32.709Z,20.43
2022-12-01T19:53:59.323Z,19.88
2022-12-01T19:56:26.002Z,19.28
2022-12-01T19:58:52.705Z,19.08
2022-12-01T20:01:19.694Z,18.52
2022-12-01T20:03:47.517Z,19.55
2022-12-01T20:06:16.436Z,19.37
2022-12-01T20:08:43.357Z,19.28
2022-12-01T20:11:10.099Z,18.45
2022-12-01T20:13:38.273Z,19.39
2022-12-01T20:16:09.457Z,18.76
2022-12-01T20:18:36.367Z,19.47
2022-12-01T20:21:04.647Z,19.97
2022-12-01T20:23:31.293Z,20.38
2022-12-01T20:26:02.382Z,23.78
2022-12-01T20:28:29.165Z,19.71
2022-12-01T20:30:55.837Z,18.85
2022-12-01T20:33:22.499Z,19.38
2022-12-01T20:35:49.190Z,19.15
2022-12-01T20:38:15.799Z,19.28
2022-12-01T20:40:42.440Z,18.89
2022-12-01T20:43:09.086Z,19.52
2022-12-01T20:45:35.725Z,20.18
2022-12-01T20:48:02.497Z,19.26
2022-12-01T20:50:29.184Z,19.90
2022-12-01T20:52:55.830Z,20.24
2022-12-01T20:55:22.440Z,19.44
2022-12-01T20:57:49.096Z,19.55
2022-12-01T21:00:15.990Z,19.03
2022-12-01T21:02:42.716Z,19.69
2022-12-01T21:05:09.539Z,19.20
2022-12-01T21:07:36.207Z,20.18
2022-12-01T21:10:03.516Z,19.30
2022-12-01T21:12:30.188Z,19.23
2022-12-01T21:15:12.112Z,18.97
2022-12-01T21:17:48.285Z,18.79
2022-12-01T21:20:41.445Z,18.64
2022-12-01T21:23:12.417Z,19.60
2022-12-01T21:25:39.440Z,18.94
2022-12-01T21:28:18.416Z,18.80
2022-12-01T21:30:46.744Z,18.64
2022-12-01T21:33:34.286Z,18.78
2022-12-01T21:36:18.384Z,19.21
2022-12-01T21:38:45.089Z,18.51
2022-12-01T21:41:37.649Z,18.09
2022-12-01T21:44:11.475Z,18.56
2022-12-01T21:46:38.073Z,18.83
2022-12-01T21:49:31.450Z,19.46
2022-12-01T21:51:58.170Z,19.24
2022-12-01T21:54:24.798Z,19.44
2022-12-01T21:56:52.587Z,19.49
2022-12-01T21:59:20.516Z,18.71
2022-12-01T22:01:47.968Z,19.11
2022-12-01T22:04:29.551Z,18.96
2022-12-01T22:06:56.702Z,18.80
2022-12-01T22:09:27.518Z,19.18
2022-12-01T22:11:56.208Z,18.44
2022-12-01T22:14:24.441Z,18.10
2022-12-01T22:16:59.814Z,19.01
2022-12-01T22:19:34.061Z,18.94
2022-12-01T22:22:09.763Z,18.78
2022-12-01T22:24:43.499Z,18.94
2022-12-01T22:27:38.452Z,18.84
2022-12-01T22:30:07.902Z,18.18
2022-12-01T22:32:56.978Z,17.73
2022-12-01T22:35:28.363Z,17.04
2022-12-01T22:38:03.708Z,17.61
2022-12-01T22:40:37.835Z,17.90
2022-12-01T22:43:25.014Z,17.07
2022-12-01T22:46:10.486Z,17.92
2022-12-01T22:48:47.078Z,17.53
2022-12-01T22:51:13.570Z,17.56
2022-12-01T22:53:42.159Z,19.14
2022-12-01T22:56:24.084Z,17.92
2022-12-01T22:58:50.763Z,17.86
2022-12-01T23:01:27.834Z,17.59
2022-12-01T23:04:24.258Z,17.35
2022-12-01T23:06:50.745Z,16.87
2022-12-01T23:09:17.346Z,17.06
2022-12-01T23:11:44.568Z,17.17
2022-12-01T23:14:20.195Z,16.93
2022-12-01T23:16:46.814Z,16.26
2022-12-01T23:19:13.430Z,16.12
2022-12-01T23:21:40.059Z,15.75
2022-12-01T23:24:07.021Z,16.66
2022-12-01T23:26:33.747Z,16.80
2022-12-01T23:29:00.418Z,16.44
2022-12-01T23:31:27.163Z,16.86
2022-12-01T23:33:53.882Z,16.94
2022-12-01T23:36:20.386Z,16.04
2022-12-01T23:38:48.183Z,16.40
2022-12-01T23:41:32.810Z,16.70
2022-12-01T23:44:01.409Z,16.51
2022-12-01T23:46:28.096Z,16.67
2022-12-01T23:49:10.071Z,15.88
2022-12-01T23:51:47.989Z,16.80
2022-12-01T23:54:23.967Z,16.75
2022-12-01T23:56:55.175Z,16.03
2022-12-01T23:59:21.808Z,15.74
